首页
METAR-TAF:

METAR-TAF

机场 :

桂林兩江國際機場

桂林, 中华人民共和国

纬度: 25-20N, 经度: 110-18E, 海拔: 166米

当前天气观测

该预报发布于1小时和4分钟前的00:00 UTC
静风
温度 14°C
湿度 88%
气压 1019 hPa
能見度: 3500
散云层高于3300英尺
阴天层高于6000英尺
轻雾

METAR: ZGKL 130000Z 00000MPS 3500 BR SCT033 OVC060 14/12 Q1019 NOSIG

时间: 09:04 (01:04 UTC)

预报

该预报发布于5小时和50分钟前的19:14 UTC
预报有效从13日的 00点(UTC)到 13日的 24点(UTC)
风速4节,风向东北
能見度: 6000
少量云层高于800英尺
多云层高于3000英尺
阴天层高于4000英尺
小雨

TAF: ZGKL 121914Z 1300/1324 05002MPS 6000 -RA FEW008 BKN030 OVC040 TX16/1307Z TN14/1322Z

超过4000个机场的气象观测和天气预报(METAR&TAF报告)。

可查询的气象台以黄色和红色小点在地图上表示。

将鼠标移到小点上方,可查看气象台名称。

然后点击查看天气观测和预报。

如需切换地图:点击带黑十字的绿色按钮放大地图;点击带横线的绿色按钮缩小地图;或者点击绿色箭头查看邻近地区的地图。


METAR-TAF: